If you wish to contribute or participate in the discussions about articles you are invited to join SKYbrary as a registered user

 Actions

Melun-Villaroche Air Base

From SKYbrary Wiki

LFPM
Airport
ICAO: LFPM
Summary
Name Melun-Villaroche Air Base
Region Europe
Territory France FR.gif
Location , Ile-de-France
Serving Melun
Elevation 92.05 m
302 ft
302 ft92.05 m
Type medium airport
Coordinates 48° 36' 17.01" N, 2° 40' 16.03" E
Runways
Designator Length Width Surface ROPS
1/19 1300 m4,265.092 ft
30 m98.425 ft
ASP yes/yes
10/28 1975 m6,479.659 ft
45 m147.638 ft
ASP yes/yes


METAR
Observation LFPM 241630Z AUTO 08004KT 010V140 CAVOK 30/12 Q1017
Station Melun
Date/Time 24 August 2019 16:30:00
Wind direction 80°
Wind speed 04 kts
Lowest cloud amount clouds and visibility OK
Temperature 30°C
Dew point 12°C
Humidity 33%
QNH 1017 hPa
Weather condition n/a